M/y Paradigm — V7TE6 — position and weather

sailwx.info

Track history (hours):
 
Tides and Currents Weather Stations Pressure Air Temp Water Temp Dewpoint Dewpoint Depression Visibility Wind Speed Wind Dir Waves Ship Positions

M/y Paradigm

Last reported at 2015-Aug-18 22:08 UTC. Time now 2015-Aug-31 15:19 UTC.
Position N 41°38' W 070°55'.
Warning: this ship's position is 12 days out of date.

Length 35 m.

Type: Pleasure craft. MMSI: 538070694.

Date/timePositionNaut miles runAvg speedWind from/ knotsBaromVisibWave heightAir tempDewpointWater temp
2015-Aug-18 22:08N 41°38' W 070°55'0 0.0
2015-Aug-18 21:29N 41°38' W 070°55'5 0.2
2015-Aug-17 20:29N 41°34' W 070°52'1111.9
2015-Aug-17 19:33N 41°27' W 071°04'1313.5
2015-Aug-17 18:33N 41°26' W 071°22'4 4.0
2015-Aug-17 17:33N 41°29' W 071°19'0 0.0
2015-Aug-17 16:33N 41°29' W 071°19'0 0.0
2015-Aug-17 13:16N 41°29' W 071°19'0 0.0
2015-Aug-17 12:30N 41°29' W 071°19'0 0.0
2015-Aug-17 11:33N 41°29' W 071°19'0 0.0
2015-Aug-17 10:33N 41°29' W 071°19'0 0.0
2015-Aug-17 09:06N 41°29' W 071°19'0 0.0
2015-Aug-17 08:30N 41°29' W 071°19'0 0.0
2015-Aug-17 07:30N 41°29' W 071°19'0 0.0
2015-Aug-17 06:33N 41°29' W 071°19'0 0.0
2015-Aug-17 05:33N 41°29' W 071°19'0 0.0
2015-Aug-17 04:33N 41°29' W 071°19'0 0.0
2015-Aug-17 03:33N 41°29' W 071°19'0 0.0
2015-Aug-17 02:33N 41°29' W 071°19'0 0.0
2015-Aug-17 01:33N 41°29' W 071°19'0 0.0
2015-Aug-17 00:33N 41°29' W 071°19'0 0.0
2015-Aug-16 23:33N 41°29' W 071°19'0 0.0
2015-Aug-16 22:27N 41°29' W 071°19'0 0.0
2015-Aug-16 12:31N 41°29' W 071°19'0 0.0
2015-Aug-16 06:31N 41°29' W 071°19'0 0.0
2015-Aug-16 05:28N 41°29' W 071°19'0 0.0
2015-Aug-16 03:28N 41°29' W 071°19'0 0.0
2015-Aug-16 02:31N 41°29' W 071°19'0 0.0
2015-Aug-16 00:31N 41°29' W 071°19'0 0.0
2015-Aug-15 23:25N 41°29' W 071°19'0 0.0
2015-Aug-15 22:22N 41°29' W 071°19'2 0.7
2015-Aug-15 19:04N 41°28' W 071°22'3 6.1
2015-Aug-15 18:33N 41°27' W 071°18'7 7.3
2015-Aug-15 17:33N 41°24' W 071°09'1313.3
2015-Aug-15 16:33N 41°25' W 070°51'3510.8
2015-Aug-15 13:20N 41°18' W 070°06'1 0.8
2015-Aug-15 12:17N 41°18' W 070°05'0 0.1
2015-Aug-15 11:32N 41°18' W 070°05'0 0.0
2015-Aug-15 10:32N 41°18' W 070°05'0 0.0
2015-Aug-15 09:32N 41°18' W 070°05'0 0.0
2015-Aug-15 08:26N 41°18' W 070°05'0 0.0
2015-Aug-15 07:29N 41°18' W 070°05'0 0.0
2015-Aug-15 06:32N 41°18' W 070°05'0 0.0
2015-Aug-15 05:32N 41°18' W 070°05'0 0.0
2015-Aug-15 04:32N 41°18' W 070°05'0 0.0
2015-Aug-15 03:32N 41°18' W 070°05'0 0.0
2015-Aug-15 02:30N 41°18' W 070°05'0 0.0
2015-Aug-15 01:31N 41°18' W 070°05'0 0.0
2015-Aug-15 00:33N 41°18' W 070°05'0 0.0
2015-Aug-14 23:32N 41°18' W 070°05'0 0.0
2015-Aug-14 22:32N 41°18' W 070°05'0 0.0
2015-Aug-14 21:32N 41°18' W 070°05'0 0.0
2015-Aug-14 19:32N 41°18' W 070°05'0 0.0
2015-Aug-14 18:29N 41°18' W 070°05'0 0.0
2015-Aug-14 11:08N 41°18' W 070°05'0 0.0
2015-Aug-14 10:32N 41°18' W 070°05'0 0.0
2015-Aug-14 09:32N 41°18' W 070°05'0 0.0
2015-Aug-14 08:32N 41°18' W 070°05'0 0.0
2015-Aug-14 07:32N 41°18' W 070°05'0 0.0
2015-Aug-14 06:32N 41°18' W 070°05'0 0.0
2015-Aug-14 05:29N 41°18' W 070°05'0 0.0
2015-Aug-14 04:32N 41°18' W 070°05'0 0.0
2015-Aug-14 03:32N 41°18' W 070°05'0 0.0
2015-Aug-14 02:32N 41°18' W 070°05'0 0.0
2015-Aug-14 01:29N 41°18' W 070°05'0 0.0
2015-Aug-14 00:30N 41°18' W 070°05'0 0.0
2015-Aug-13 23:32N 41°18' W 070°05'46 1.6
2015-Aug-12 18:30N 41°21' W 071°06'1314.2
2015-Aug-12 17:33N 41°18' W 071°23'1313.2
2015-Aug-12 16:33N 41°15' W 071°40'1514.7
2015-Aug-12 15:33N 41°11' W 071°59'1413.5
2015-Aug-12 14:33N 41°04' W 072°15'4 4.3
2015-Aug-12 13:33N 41°00' W 072°18'0 0.0
2015-Aug-12 12:33N 41°00' W 072°18'0 0.0
2015-Aug-12 11:33N 41°00' W 072°18'0 0.0
2015-Aug-12 10:33N 41°00' W 072°18'0 0.0
2015-Aug-12 09:33N 41°00' W 072°18'0 0.0
2015-Aug-12 08:33N 41°00' W 072°18'0 0.0
2015-Aug-12 07:33N 41°00' W 072°18'0 0.0
2015-Aug-12 06:33N 41°00' W 072°18'0 0.0
2015-Aug-12 05:33N 41°00' W 072°18'0 0.0
2015-Aug-12 04:33N 41°00' W 072°18'0 0.0
2015-Aug-12 03:33N 41°00' W 072°18'0 0.0
2015-Aug-12 02:33N 41°00' W 072°18'0 0.0
2015-Aug-12 01:30N 41°00' W 072°18'0 0.0
2015-Aug-12 00:33N 41°00' W 072°18'0 0.0
2015-Aug-11 23:33N 41°00' W 072°18'0 0.0
2015-Aug-11 22:33N 41°00' W 072°18'0 0.0
2015-Aug-11 21:33N 41°00' W 072°18'0 0.0
2015-Aug-11 20:33N 41°00' W 072°18'0 0.0
2015-Aug-11 19:33N 41°00' W 072°18'0 0.0
2015-Aug-11 18:33N 41°00' W 072°18'0 0.0
2015-Aug-11 17:33N 41°00' W 072°18'0 0.0
2015-Aug-11 16:33N 41°00' W 072°18'0 0.0
2015-Aug-11 15:33N 41°00' W 072°18'0 0.0
2015-Aug-11 00:15N 41°00' W 072°18'0 0.0
2015-Aug-10 23:33N 41°00' W 072°18'0 0.0
2015-Aug-10 22:33N 41°00' W 072°18'0 0.0
2015-Aug-10 21:33N 41°00' W 072°18'0 0.0
2015-Aug-10 20:33N 41°00' W 072°18'2 2.0
2015-Aug-10 19:32N 41°02' W 072°17'0 0.0
2015-Aug-10 18:32N 41°02' W 072°17'0 0.0
2015-Aug-10 17:32N 41°02' W 072°17'0 0.5
2015-Aug-10 16:33N 41°02' W 072°18'2 1.9
2015-Aug-10 15:32N 41°00' W 072°18'0 0.0
2015-Aug-10 14:32N 41°00' W 072°18'0 0.0
2015-Aug-10 13:32N 41°00' W 072°18'0 0.0
2015-Aug-10 12:32N 41°00' W 072°18'0 0.0
2015-Aug-10 11:32N 41°00' W 072°18'  
Track history (hours):
 
Tides and Currents Weather Stations Pressure Air Temp Water Temp Dewpoint Dewpoint Depression Visibility Wind Speed Wind Dir Waves Ship Positions

M/y Paradigm

Last reported at 2015-Aug-18 22:08 UTC. Time now 2015-Aug-31 15:19 UTC.
Position N 41°38' W 070°55'.
Warning: this ship's position is 12 days out of date.

Length 35 m.

Type: Pleasure craft. MMSI: 538070694.

Date/timePositionNaut miles runAvg speedWind from/ knotsBaromVisibWave heightAir tempDewpointWater temp
2015-Aug-18 22:08N 41°38' W 070°55'0 0.0
2015-Aug-18 21:29N 41°38' W 070°55'5 0.2
2015-Aug-17 20:29N 41°34' W 070°52'1111.9
2015-Aug-17 19:33N 41°27' W 071°04'1313.5
2015-Aug-17 18:33N 41°26' W 071°22'4 4.0
2015-Aug-17 17:33N 41°29' W 071°19'0 0.0
2015-Aug-17 16:33N 41°29' W 071°19'0 0.0
2015-Aug-17 13:16N 41°29' W 071°19'0 0.0
2015-Aug-17 12:30N 41°29' W 071°19'0 0.0
2015-Aug-17 11:33N 41°29' W 071°19'0 0.0
2015-Aug-17 10:33N 41°29' W 071°19'0 0.0
2015-Aug-17 09:06N 41°29' W 071°19'0 0.0
2015-Aug-17 08:30N 41°29' W 071°19'0 0.0
2015-Aug-17 07:30N 41°29' W 071°19'0 0.0
2015-Aug-17 06:33N 41°29' W 071°19'0 0.0
2015-Aug-17 05:33N 41°29' W 071°19'0 0.0
2015-Aug-17 04:33N 41°29' W 071°19'0 0.0
2015-Aug-17 03:33N 41°29' W 071°19'0 0.0
2015-Aug-17 02:33N 41°29' W 071°19'0 0.0
2015-Aug-17 01:33N 41°29' W 071°19'0 0.0
2015-Aug-17 00:33N 41°29' W 071°19'0 0.0
2015-Aug-16 23:33N 41°29' W 071°19'0 0.0
2015-Aug-16 22:27N 41°29' W 071°19'0 0.0
2015-Aug-16 12:31N 41°29' W 071°19'0 0.0
2015-Aug-16 06:31N 41°29' W 071°19'0 0.0
2015-Aug-16 05:28N 41°29' W 071°19'0 0.0
2015-Aug-16 03:28N 41°29' W 071°19'0 0.0
2015-Aug-16 02:31N 41°29' W 071°19'0 0.0
2015-Aug-16 00:31N 41°29' W 071°19'0 0.0
2015-Aug-15 23:25N 41°29' W 071°19'0 0.0
2015-Aug-15 22:22N 41°29' W 071°19'2 0.7
2015-Aug-15 19:04N 41°28' W 071°22'3 6.1
2015-Aug-15 18:33N 41°27' W 071°18'7 7.3
2015-Aug-15 17:33N 41°24' W 071°09'1313.3
2015-Aug-15 16:33N 41°25' W 070°51'3510.8
2015-Aug-15 13:20N 41°18' W 070°06'1 0.8
2015-Aug-15 12:17N 41°18' W 070°05'0 0.1
2015-Aug-15 11:32N 41°18' W 070°05'0 0.0
2015-Aug-15 10:32N 41°18' W 070°05'0 0.0
2015-Aug-15 09:32N 41°18' W 070°05'0 0.0
2015-Aug-15 08:26N 41°18' W 070°05'0 0.0
2015-Aug-15 07:29N 41°18' W 070°05'0 0.0
2015-Aug-15 06:32N 41°18' W 070°05'0 0.0
2015-Aug-15 05:32N 41°18' W 070°05'0 0.0
2015-Aug-15 04:32N 41°18' W 070°05'0 0.0
2015-Aug-15 03:32N 41°18' W 070°05'0 0.0
2015-Aug-15 02:30N 41°18' W 070°05'0 0.0
2015-Aug-15 01:31N 41°18' W 070°05'0 0.0
2015-Aug-15 00:33N 41°18' W 070°05'0 0.0
2015-Aug-14 23:32N 41°18' W 070°05'0 0.0
2015-Aug-14 22:32N 41°18' W 070°05'0 0.0
2015-Aug-14 21:32N 41°18' W 070°05'0 0.0
2015-Aug-14 19:32N 41°18' W 070°05'0 0.0
2015-Aug-14 18:29N 41°18' W 070°05'0 0.0
2015-Aug-14 11:08N 41°18' W 070°05'0 0.0
2015-Aug-14 10:32N 41°18' W 070°05'0 0.0
2015-Aug-14 09:32N 41°18' W 070°05'0 0.0
2015-Aug-14 08:32N 41°18' W 070°05'0 0.0
2015-Aug-14 07:32N 41°18' W 070°05'0 0.0
2015-Aug-14 06:32N 41°18' W 070°05'0 0.0
2015-Aug-14 05:29N 41°18' W 070°05'0 0.0
2015-Aug-14 04:32N 41°18' W 070°05'0 0.0
2015-Aug-14 03:32N 41°18' W 070°05'0 0.0
2015-Aug-14 02:32N 41°18' W 070°05'0 0.0
2015-Aug-14 01:29N 41°18' W 070°05'0 0.0
2015-Aug-14 00:30N 41°18' W 070°05'0 0.0
2015-Aug-13 23:32N 41°18' W 070°05'46 1.6
2015-Aug-12 18:30N 41°21' W 071°06'1314.2
2015-Aug-12 17:33N 41°18' W 071°23'1313.2
2015-Aug-12 16:33N 41°15' W 071°40'1514.7
2015-Aug-12 15:33N 41°11' W 071°59'1413.5
2015-Aug-12 14:33N 41°04' W 072°15'4 4.3
2015-Aug-12 13:33N 41°00' W 072°18'0 0.0
2015-Aug-12 12:33N 41°00' W 072°18'0 0.0
2015-Aug-12 11:33N 41°00' W 072°18'0 0.0
2015-Aug-12 10:33N 41°00' W 072°18'0 0.0
2015-Aug-12 09:33N 41°00' W 072°18'0 0.0
2015-Aug-12 08:33N 41°00' W 072°18'0 0.0
2015-Aug-12 07:33N 41°00' W 072°18'0 0.0
2015-Aug-12 06:33N 41°00' W 072°18'0 0.0
2015-Aug-12 05:33N 41°00' W 072°18'0 0.0
2015-Aug-12 04:33N 41°00' W 072°18'0 0.0
2015-Aug-12 03:33N 41°00' W 072°18'0 0.0
2015-Aug-12 02:33N 41°00' W 072°18'0 0.0
2015-Aug-12 01:30N 41°00' W 072°18'0 0.0
2015-Aug-12 00:33N 41°00' W 072°18'0 0.0
2015-Aug-11 23:33N 41°00' W 072°18'0 0.0
2015-Aug-11 22:33N 41°00' W 072°18'0 0.0
2015-Aug-11 21:33N 41°00' W 072°18'0 0.0
2015-Aug-11 20:33N 41°00' W 072°18'0 0.0
2015-Aug-11 19:33N 41°00' W 072°18'0 0.0
2015-Aug-11 18:33N 41°00' W 072°18'0 0.0
2015-Aug-11 17:33N 41°00' W 072°18'0 0.0
2015-Aug-11 16:33N 41°00' W 072°18'0 0.0
2015-Aug-11 15:33N 41°00' W 072°18'0 0.0
2015-Aug-11 00:15N 41°00' W 072°18'0 0.0
2015-Aug-10 23:33N 41°00' W 072°18'0 0.0
2015-Aug-10 22:33N 41°00' W 072°18'0 0.0
2015-Aug-10 21:33N 41°00' W 072°18'0 0.0
2015-Aug-10 20:33N 41°00' W 072°18'2 2.0
2015-Aug-10 19:32N 41°02' W 072°17'0 0.0
2015-Aug-10 18:32N 41°02' W 072°17'0 0.0
2015-Aug-10 17:32N 41°02' W 072°17'0 0.5
2015-Aug-10 16:33N 41°02' W 072°18'2 1.9
2015-Aug-10 15:32N 41°00' W 072°18'0 0.0
2015-Aug-10 14:32N 41°00' W 072°18'0 0.0
2015-Aug-10 13:32N 41°00' W 072°18'0 0.0
2015-Aug-10 12:32N 41°00' W 072°18'0 0.0
2015-Aug-10 11:32N 41°00' W 072°18'  

Dump ship's entire track history